Ojai, California
Current Conditions -  °F | °C
As of 6:51 PM on Saturday 22 Nov 2014 (Local Time) from KOXR Reporting Station
Clear Clear  
Wind Chill: 64°   Ceiling: Unl
Heat Index: 64°   Visibility: 10mi
Dew Point: 58°   Wind: 5mph
Humidity: 80%   Direction: 110°ESE
Pressure: 29.98"   Gusts: NA
Location:  34.44°N, 119.24°W
Report Text: KOXR 230251Z 11004KT 10SM CLR 18/14 A2998 RMK AO2 SLP151 T01780144 55005
Loading
Personal Weather Stations






























Interactive Weather Map New forecast layout! Learn more

10-Day Weather Forecast

Advertisements
Track Severe Weather on mobile